Kokomo, IN (46902)

1:27 AM EDT on August 28, 2015 (GMT -0400)
Country Club Hills | | Change Station
CLOSE
Current Station
Personal Weather Station
Location: Kokomo, IN
Elevation: 823 ft
Nearby Weather Stations

Elev 823 ft 40.46 °N, 86.15 °W | Updated 6 seconds ago

Mostly Cloudy
Mostly Cloudy
60.6 °F
Feels Like 60.6 °F
N
0.0
Wind Variable Wind from ENE
Gusts 0.0 mph

Today
High -- | Low -- °F
--% Chance of Precip.
Yesterday
High -- | Low -- °F
Precip. -- in
7:07 AM 8:23 PM
Waxing Gibbous, 96% visible
Pressure 30.16 in
Visibility 10.0 miles
Clouds Mostly Cloudy 4600 ft
Dew Point 55 °F
Humidity 81%
Rainfall 0.00 in
Snow Depth Not available.
UV 0 out of 12
Pollen 10.00 out of 12
Air Quality Not available.
Flu Activity Not available.
METAR KOKK 280515Z AUTO 13004KT 10SM BKN046 15/12 A3016 RMK AO1
Pressure 30.16 in
Visibility 10.0 miles
Clouds Mostly Cloudy 4600 ft
Dew Point 55 °F
Humidity 81%
Rainfall 0.00 in
Snow Depth Not available.
UV 0 out of 12
Pollen 10.00 out of 12
Air Quality Not available.
Flu Activity Not available.
METAR KOKK 280515Z AUTO 13004KT 10SM BKN046 15/12 A3016 RMK AO1

10-Day Weather Forecast

×

Almanac

Astronomy

Aug. 28, 2015 Rise Set
Actual Time
Civil Twilight
Nautical Twilight
Astronomical Twilight
Moon
Length of Visible Light
Length of Day
Tomorrow will be .
, % of the Moon is Illuminated

Today's Extremes

State Highs State Lows

Community

WunderPhotos

Upload Photos

1,850,340 photos uploaded!

WunderBlogs® & News

Nearby

Air Quality

  Air Quality AQ Index Pollutant
Not available.

Snow Depth

Station Depth Elevation

Earthquake Activity

City Distance Mag. Time & Date
Minimum magnitude displayed is 2.5.

Coastal Water Temperatures

Place Temperature

Stations

Nearby Weather Stations

Station Location Temp. Windchill Dew Point Humidity Wind Precip. Elev Updated Type